Time;durP1;ratioP1;P1;durP2;ratioP2;P2;SDS_P1;SDS_P2;PMS_P1;PMS_P2;Temp;Humidity;BMP_temperature;BMP_pressure;BME280_temperature;BME280_humidity;BME280_pressure;Samples;Min_cycle;Max_cycle;Signal;HPM_P1;HPM_P2
2023/08/19 00:00:22;;;;;;;6.97;3.78;;;;;;;23.43;60.22;95583.25;5037771;28;20763;-80
2023/08/19 00:02:47;;;;;;;9.18;3.78;;;;;;;23.48;59.60;95587.84;5031303;28;20253;-80
2023/08/19 00:05:13;;;;;;;6.30;3.22;;;;;;;23.46;60.38;95579.31;5045098;28;20186;-79
2023/08/19 00:07:38;;;;;;;4.53;3.30;;;;;;;23.49;59.69;95586.00;5050772;28;20206;-80
2023/08/19 00:10:04;;;;;;;8.45;3.70;;;;;;;23.29;60.06;95579.16;5040181;28;20721;-80
2023/08/19 00:12:30;;;;;;;5.90;3.33;;;;;;;23.48;59.48;95577.25;5041201;28;20189;-81
2023/08/19 00:14:55;;;;;;;5.15;3.78;;;;;;;23.40;59.80;95581.03;5037930;28;20735;-79
2023/08/19 00:17:24;;;;;;;5.53;3.38;;;;;;;23.44;59.41;95576.09;5033801;28;20240;-79
2023/08/19 00:19:50;;;;;;;6.55;3.45;;;;;;;23.46;59.32;95572.19;5034089;28;20199;-80
2023/08/19 00:22:17;;;;;;;8.38;4.00;;;;;;;23.41;59.32;95571.25;5046595;28;20229;-80
2023/08/19 00:24:43;;;;;;;5.13;3.35;;;;;;;23.34;59.60;95567.91;5044239;28;20185;-80
2023/08/19 00:27:08;;;;;;;5.70;3.42;;;;;;;23.33;59.26;95575.03;5035159;28;20214;-80
2023/08/19 00:29:33;;;;;;;6.85;3.95;;;;;;;23.33;59.14;95579.53;5038993;28;20205;-80
2023/08/19 00:31:59;;;;;;;6.93;4.13;;;;;;;23.25;59.38;95575.38;5036697;28;20202;-80
2023/08/19 00:34:24;;;;;;;9.10;3.88;;;;;;;23.29;59.35;95573.06;5036253;28;20198;-80
2023/08/19 00:36:49;;;;;;;9.38;3.47;;;;;;;23.27;58.98;95575.94;5036494;28;20216;-79
2023/08/19 00:39:15;;;;;;;6.03;3.60;;;;;;;23.37;58.61;95575.38;5042092;28;20186;-79
2023/08/19 00:41:40;;;;;;;7.03;3.40;;;;;;;23.34;58.46;95571.38;5036314;28;20194;-81
2023/08/19 00:44:06;;;;;;;7.07;3.55;;;;;;;23.41;58.01;95584.50;5026140;28;20192;-80
2023/08/19 00:46:31;;;;;;;6.28;3.45;;;;;;;23.38;58.21;95580.47;5040688;28;20226;-81
2023/08/19 00:48:57;;;;;;;5.50;3.35;;;;;;;23.36;58.47;95574.59;5039104;28;20175;-80
2023/08/19 00:51:23;;;;;;;9.90;3.63;;;;;;;23.37;58.00;95580.69;5036134;28;20190;-80
2023/08/19 00:53:48;;;;;;;5.57;3.40;;;;;;;23.42;57.66;95576.34;5044821;28;20678;-79
2023/08/19 00:56:14;;;;;;;5.88;3.53;;;;;;;23.40;57.22;95581.03;5054324;28;20190;-79
2023/08/19 00:58:40;;;;;;;7.68;3.45;;;;;;;23.34;57.55;95581.16;5034547;28;20210;-80
2023/08/19 01:01:05;;;;;;;5.35;3.08;;;;;;;23.39;57.27;95571.47;5073862;28;20216;-79
2023/08/19 01:03:30;;;;;;;6.70;3.28;;;;;;;23.35;57.43;95572.97;5078756;28;20200;-79
2023/08/19 01:06:21;;;;;;;8.25;3.22;;;;;;;23.34;57.42;95576.66;5067036;28;20177;-79
2023/08/19 01:09:00;;;;;;;7.10;3.40;;;;;;;23.31;57.35;95571.78;5068134;28;20206;-79
2023/08/19 01:11:44;;;;;;;8.35;3.10;;;;;;;23.35;56.80;95567.66;5049680;28;20218;-80
2023/08/19 01:14:31;;;;;;;9.43;3.40;;;;;;;23.32;56.77;95572.59;5069027;28;20194;-80
2023/08/19 01:16:59;;;;;;;4.82;3.33;;;;;;;23.38;56.51;95567.22;5063078;28;20182;-80
2023/08/19 01:19:32;;;;;;;7.18;3.40;;;;;;;23.32;56.17;95570.78;5046385;28;20174;-80
2023/08/19 01:22:03;;;;;;;6.45;3.38;;;;;;;23.36;56.16;95565.84;5060856;28;20174;-80
2023/08/19 01:24:36;;;;;;;4.38;3.40;;;;;;;23.40;55.93;95562.47;5052971;28;20187;-82
2023/08/19 01:27:03;;;;;;;6.38;3.35;;;;;;;23.36;55.82;95561.34;5037849;28;20205;-80
2023/08/19 01:29:28;;;;;;;9.05;3.50;;;;;;;23.42;55.47;95555.13;5052943;28;20194;-82
2023/08/19 01:31:53;;;;;;;5.75;3.80;;;;;;;23.42;55.34;95555.13;5048638;28;20190;-81
2023/08/19 01:34:19;;;;;;;9.13;4.07;;;;;;;23.39;55.66;95557.41;5050541;28;20242;-81
2023/08/19 01:36:46;;;;;;;5.75;3.50;;;;;;;23.36;55.73;95558.69;5051417;28;20207;-81
2023/08/19 01:39:12;;;;;;;5.30;3.15;;;;;;;23.37;55.62;95562.94;5051345;28;20246;-82
2023/08/19 01:41:38;;;;;;;13.15;3.50;;;;;;;23.37;55.36;95560.28;5061945;28;20253;-82
2023/08/19 01:44:05;;;;;;;5.97;3.38;;;;;;;23.36;55.33;95565.84;5047936;28;20282;-81
2023/08/19 01:46:30;;;;;;;5.53;3.08;;;;;;;23.37;55.55;95564.78;5065930;28;20264;-81
2023/08/19 01:48:55;;;;;;;8.00;3.38;;;;;;;23.36;55.57;95557.88;5052487;28;20248;-82
2023/08/19 01:51:21;;;;;;;5.95;3.28;;;;;;;23.22;56.54;95557.25;5062105;28;20651;-81
2023/08/19 01:53:46;;;;;;;7.22;3.50;;;;;;;23.26;56.25;95558.44;5063882;28;20181;-80
2023/08/19 01:56:12;;;;;;;6.15;3.80;;;;;;;23.26;56.16;95555.78;5067941;28;20217;-82
2023/08/19 01:58:37;;;;;;;4.10;3.33;;;;;;;23.26;56.46;95557.63;5049483;28;20217;-81
2023/08/19 02:01:03;;;;;;;6.68;2.88;;;;;;;23.23;56.70;95558.88;5056085;28;20223;-81
2023/08/19 02:03:28;;;;;;;3.92;2.83;;;;;;;23.20;56.77;95558.53;5036562;28;20189;-81
2023/08/19 02:05:53;;;;;;;4.43;3.20;;;;;;;23.15;56.51;95565.31;5032607;28;20297;-81
2023/08/19 02:08:18;;;;;;;5.43;3.35;;;;;;;23.12;57.35;95557.00;5045340;28;20207;-81
2023/08/19 02:10:44;;;;;;;6.68;3.92;;;;;;;23.07;57.46;95559.53;5045911;28;20223;-82
2023/08/19 02:13:09;;;;;;;3.97;3.28;;;;;;;22.99;57.74;95557.19;5048956;28;20186;-82
2023/08/19 02:15:34;;;;;;;4.20;3.58;;;;;;;22.86;58.45;95550.22;5044120;28;20213;-81
2023/08/19 02:18:00;;;;;;;8.02;3.70;;;;;;;22.83;58.14;95561.25;5044006;28;20218;-81
2023/08/19 02:20:26;;;;;;;6.50;3.47;;;;;;;22.81;58.16;95558.81;5054291;28;20217;-81
2023/08/19 02:22:52;;;;;;;7.22;3.30;;;;;;;22.80;58.39;95561.69;5044486;28;20186;-82
2023/08/19 02:25:17;;;;;;;4.07;3.65;;;;;;;22.77;58.47;95560.28;5041731;28;20212;-80
2023/08/19 02:27:42;;;;;;;6.40;3.70;;;;;;;22.76;58.34;95563.97;5061110;28;20204;-81
2023/08/19 02:30:10;;;;;;;4.97;3.50;;;;;;;22.72;58.43;95562.81;5059448;28;20627;-82
2023/08/19 02:32:35;;;;;;;6.07;3.67;;;;;;;22.63;58.44;95560.69;5059606;28;20216;-80
2023/08/19 02:35:01;;;;;;;6.05;3.50;;;;;;;22.58;58.90;95558.69;5038449;28;20246;-81
2023/08/19 02:37:26;;;;;;;7.68;3.55;;;;;;;22.61;58.40;95566.97;5042636;28;20201;-82
2023/08/19 02:39:51;;;;;;;6.65;3.80;;;;;;;22.61;58.30;95558.25;5049624;28;20288;-81
2023/08/19 02:42:17;;;;;;;8.38;3.70;;;;;;;22.63;58.35;95558.84;5048294;28;20226;-80
2023/08/19 02:44:43;;;;;;;6.85;3.80;;;;;;;22.55;58.15;95559.16;5057668;28;20213;-81
2023/08/19 02:47:08;;;;;;;8.02;3.80;;;;;;;22.59;58.06;95562.94;5058317;28;20205;-81
2023/08/19 02:49:34;;;;;;;7.40;3.75;;;;;;;22.57;58.68;95565.03;5040923;28;20188;-81
2023/08/19 02:51:59;;;;;;;9.20;3.90;;;;;;;22.57;58.05;95565.03;5036906;28;20186;-81
2023/08/19 02:54:24;;;;;;;9.98;3.53;;;;;;;22.54;58.14;95558.34;5051099;28;20187;-81
2023/08/19 02:56:49;;;;;;;9.02;3.65;;;;;;;22.51;57.63;95560.59;5047299;28;20197;-80
2023/08/19 02:59:15;;;;;;;7.35;3.38;;;;;;;22.48;57.34;95571.63;5044934;28;20188;-81
2023/08/19 03:01:41;;;;;;;6.10;3.58;;;;;;;22.57;56.77;95565.03;5040868;28;20194;-82
2023/08/19 03:04:07;;;;;;;7.47;3.83;;;;;;;22.63;56.47;95564.13;5038465;28;20190;-81
2023/08/19 03:06:33;;;;;;;5.13;2.97;;;;;;;22.74;55.55;95566.03;5039437;28;20240;-81
2023/08/19 03:08:58;;;;;;;9.00;3.67;;;;;;;22.73;56.01;95564.41;5041579;28;20244;-81
2023/08/19 03:11:23;;;;;;;8.88;3.55;;;;;;;22.80;55.32;95564.34;5039580;28;20188;-81
2023/08/19 03:13:49;;;;;;;5.78;3.33;;;;;;;22.79;55.35;95560.06;5040137;28;20187;-82
2023/08/19 03:16:15;;;;;;;8.48;3.35;;;;;;;22.82;55.28;95562.28;5047403;28;20242;-81
2023/08/19 03:18:40;;;;;;;8.25;3.10;;;;;;;22.75;55.55;95559.69;5051415;28;20198;-81
2023/08/19 03:21:06;;;;;;;4.85;3.70;;;;;;;22.68;55.67;95561.63;5053559;28;20288;-80
2023/08/19 03:23:31;;;;;;;7.75;3.67;;;;;;;22.53;56.33;95566.50;5040789;28;20217;-80
2023/08/19 03:25:57;;;;;;;7.03;3.25;;;;;;;22.56;56.05;95556.28;5056545;28;20217;-82
2023/08/19 03:28:23;;;;;;;7.35;3.50;;;;;;;22.63;55.79;95566.78;5055319;28;20794;-82
2023/08/19 03:30:48;;;;;;;6.72;3.25;;;;;;;22.65;55.59;95551.47;5039722;28;20190;-80
2023/08/19 03:33:13;;;;;;;7.78;3.63;;;;;;;22.66;54.99;95555.75;5065642;28;20197;-81
2023/08/19 03:35:39;;;;;;;9.95;3.03;;;;;;;22.69;54.77;95557.13;5045347;28;20186;-81
2023/08/19 03:38:04;;;;;;;9.43;3.25;;;;;;;22.69;54.28;95555.28;5037094;28;20244;-81
2023/08/19 03:40:29;;;;;;;5.57;3.80;;;;;;;22.81;53.67;95561.47;5043007;28;20229;-81
2023/08/19 03:42:55;;;;;;;6.85;3.10;;;;;;;22.93;53.30;95560.72;5036727;28;20195;-81
2023/08/19 03:45:20;;;;;;;6.43;3.20;;;;;;;22.89;53.13;95565.69;5035491;28;20194;-81
2023/08/19 03:47:46;;;;;;;5.45;3.22;;;;;;;22.79;53.77;95568.81;5022357;28;20213;-80
2023/08/19 03:50:11;;;;;;;6.82;3.90;;;;;;;22.79;53.87;95565.34;5026273;28;20182;-82
2023/08/19 03:52:36;;;;;;;5.30;3.10;;;;;;;22.75;53.95;95561.53;5045336;28;20186;-81
2023/08/19 03:55:02;;;;;;;7.32;3.95;;;;;;;22.64;54.03;95568.41;5039274;28;20626;-81
2023/08/19 03:57:27;;;;;;;6.55;3.50;;;;;;;22.73;53.97;95569.72;5032873;28;20201;-81
2023/08/19 03:59:52;;;;;;;8.88;3.67;;;;;;;22.72;53.65;95568.09;5032854;28;20331;-80
2023/08/19 04:02:18;;;;;;;8.65;3.75;;;;;;;22.72;53.52;95567.28;5037426;28;20535;-81
2023/08/19 04:05:00;;;;;;;11.32;3.70;;;;;;;22.69;53.59;95560.59;5037109;28;20207;-81
2023/08/19 04:07:26;;;;;;;4.25;3.00;;;;;;;22.62;53.85;95559.88;5072020;28;20257;-81
2023/08/19 04:09:53;;;;;;;9.70;3.33;;;;;;;22.63;53.42;95561.50;5057939;28;20179;-79
2023/08/19 04:12:19;;;;;;;9.63;3.67;;;;;;;22.64;53.45;95560.47;5050013;28;20166;-80
2023/08/19 04:14:45;;;;;;;5.88;3.80;;;;;;;22.67;53.14;95565.28;5057197;28;20209;-79
2023/08/19 04:17:10;;;;;;;5.95;3.67;;;;;;;22.61;53.46;95566.97;5053193;28;20199;-80
2023/08/19 04:19:36;;;;;;;7.50;3.28;;;;;;;22.56;53.65;95558.13;5057721;28;20198;-80
2023/08/19 04:22:01;;;;;;;7.68;3.50;;;;;;;22.65;53.46;95562.06;5060566;28;20209;-80
2023/08/19 04:24:27;;;;;;;7.28;3.53;;;;;;;22.58;53.99;95567.44;5061498;28;20175;-79
2023/08/19 04:26:53;;;;;;;3.85;3.15;;;;;;;22.46;54.34;95566.56;5056610;28;20190;-79
2023/08/19 04:29:18;;;;;;;4.45;3.05;;;;;;;22.42;54.49;95572.50;5061453;28;20338;-82
2023/08/19 04:31:43;;;;;;;7.28;3.30;;;;;;;22.52;54.10;95557.72;5042244;28;20185;-81
2023/08/19 04:34:09;;;;;;;8.50;3.22;;;;;;;22.58;53.95;95567.44;5051251;28;20197;-81
2023/08/19 04:36:34;;;;;;;5.15;3.25;;;;;;;22.59;54.30;95562.94;5051279;28;20193;-81
2023/08/19 04:38:59;;;;;;;8.32;3.50;;;;;;;22.61;54.07;95574.13;5041920;28;20190;-82
2023/08/19 04:41:25;;;;;;;6.43;3.38;;;;;;;22.50;54.48;95583.59;5039501;28;20209;-81
2023/08/19 04:43:50;;;;;;;7.63;3.83;;;;;;;22.54;53.97;95581.34;5056934;28;20190;-82
2023/08/19 04:46:16;;;;;;;5.47;3.75;;;;;;;22.72;53.05;95578.69;5039396;28;20181;-82
2023/08/19 04:48:41;;;;;;;8.05;4.50;;;;;;;22.79;53.11;95576.78;5034745;28;20243;-82
2023/08/19 04:51:07;;;;;;;5.68;2.97;;;;;;;22.80;52.93;95581.03;5037759;28;20188;-81
2023/08/19 04:53:32;;;;;;;8.55;3.33;;;;;;;22.77;53.10;95578.81;5049171;28;20560;-82
2023/08/19 04:56:04;;;;;;;7.30;3.28;;;;;;;22.83;52.81;95577.94;5049911;28;20187;-81
2023/08/19 04:58:29;;;;;;;7.63;3.42;;;;;;;22.93;52.98;95585.38;5040426;28;20821;-82
2023/08/19 05:00:55;;;;;;;10.50;3.97;;;;;;;22.83;53.12;95585.88;5055877;28;20238;-82
2023/08/19 05:03:20;;;;;;;7.03;3.13;;;;;;;23.07;52.68;95586.81;5056276;28;20265;-82
2023/08/19 05:05:46;;;;;;;5.80;3.50;;;;;;;23.19;52.32;95586.84;5036336;28;20190;-82
2023/08/19 05:08:11;;;;;;;7.15;4.15;;;;;;;24.05;49.89;95587.41;5050263;28;20209;-81
2023/08/19 05:10:37;;;;;;;8.13;3.22;;;;;;;24.97;47.68;95595.44;5039353;28;20197;-81
2023/08/19 05:13:02;;;;;;;5.13;3.63;;;;;;;26.23;44.26;95588.06;5045320;28;20174;-81
2023/08/19 05:15:27;;;;;;;6.57;3.38;;;;;;;26.88;42.61;95598.00;5043485;28;20667;-82
2023/08/19 05:17:53;;;;;;;5.45;3.10;;;;;;;26.77;42.41;95599.75;5036529;28;20266;-82
2023/08/19 05:20:18;;;;;;;9.48;3.13;;;;;;;26.35;43.65;95596.75;5041471;28;20218;-81
2023/08/19 05:22:44;;;;;;;6.72;3.25;;;;;;;25.80;44.73;95594.06;5038583;28;20186;-82
2023/08/19 05:25:09;;;;;;;7.10;3.20;;;;;;;25.63;45.02;95589.53;5037033;28;20182;-81
2023/08/19 05:27:35;;;;;;;8.43;3.85;;;;;;;25.46;45.58;95593.22;5025622;28;20198;-81
2023/08/19 05:30:00;;;;;;;3.90;2.90;;;;;;;25.23;46.72;95604.75;5009260;28;1051574;-82
2023/08/19 05:32:26;;;;;;;5.53;3.65;;;;;;;25.01;47.63;95600.06;5048447;28;20193;-80
2023/08/19 05:34:51;;;;;;;7.82;3.60;;;;;;;24.83;47.91;95605.56;5034893;28;20659;-82
2023/08/19 05:37:17;;;;;;;10.43;4.15;;;;;;;24.87;48.18;95612.00;5041317;28;20201;-82
2023/08/19 05:39:42;;;;;;;5.97;3.20;;;;;;;24.85;48.10;95601.63;5041144;28;20209;-81
2023/08/19 05:42:07;;;;;;;13.73;4.03;;;;;;;24.82;48.67;95610.03;5040885;28;20190;-82
2023/08/19 05:44:33;;;;;;;9.88;3.75;;;;;;;24.86;48.04;95615.69;5059345;28;20200;-81
2023/08/19 05:46:58;;;;;;;6.93;3.10;;;;;;;24.96;48.28;95615.91;5052118;28;20201;-81
2023/08/19 05:49:23;;;;;;;8.63;3.75;;;;;;;25.00;48.26;95613.56;5039694;28;20185;-81
2023/08/19 05:51:48;;;;;;;7.30;3.70;;;;;;;25.04;47.90;95618.22;5039351;28;20182;-80
2023/08/19 05:54:14;;;;;;;6.30;3.40;;;;;;;25.09;48.22;95623.66;5028660;28;20640;-80
2023/08/19 05:56:39;;;;;;;9.27;4.38;;;;;;;25.10;48.43;95621.78;5038122;28;20190;-82
2023/08/19 05:59:04;;;;;;;9.32;3.55;;;;;;;25.13;48.33;95624.78;5037798;28;20187;-81
2023/08/19 06:01:30;;;;;;;7.25;3.47;;;;;;;25.22;47.75;95624.41;5037445;28;20217;-81
2023/08/19 06:03:55;;;;;;;5.65;3.47;;;;;;;25.27;48.06;95627.97;5040352;28;20241;-81
2023/08/19 06:06:21;;;;;;;7.97;3.63;;;;;;;25.41;48.30;95628.47;5026925;28;20198;-81
2023/08/19 06:08:46;;;;;;;5.47;3.75;;;;;;;25.44;48.50;95625.31;5047666;28;20256;-81
2023/08/19 06:11:11;;;;;;;6.55;3.10;;;;;;;25.52;48.49;95632.91;5034210;28;20196;-82
2023/08/19 06:13:37;;;;;;;7.57;3.00;;;;;;;25.66;47.85;95634.22;5042783;28;20323;-81
2023/08/19 06:16:03;;;;;;;6.10;3.33;;;;;;;25.63;48.33;95634.72;5040487;28;20188;-80
2023/08/19 06:18:29;;;;;;;6.47;3.53;;;;;;;25.73;48.03;95633.31;5040677;28;20209;-81
2023/08/19 06:20:55;;;;;;;5.15;2.92;;;;;;;25.83;47.78;95642.25;5045869;28;20212;-80
2023/08/19 06:23:21;;;;;;;4.43;3.55;;;;;;;25.88;47.40;95637.00;5027830;28;20296;-80
2023/08/19 06:25:51;;;;;;;6.85;3.95;;;;;;;25.76;48.10;95635.47;5059262;28;20200;-80
2023/08/19 06:28:18;;;;;;;6.32;3.67;;;;;;;26.02;47.74;95637.50;5051519;28;20292;-81
2023/08/19 06:30:43;;;;;;;8.10;4.30;;;;;;;26.04;47.32;95634.59;5041976;28;20186;-81
2023/08/19 06:33:09;;;;;;;5.65;3.35;;;;;;;25.89;47.17;95638.66;5055319;28;20188;-82
2023/08/19 06:35:35;;;;;;;6.03;3.28;;;;;;;25.93;46.61;95641.63;5038614;28;20185;-81
2023/08/19 06:38:05;;;;;;;7.07;3.42;;;;;;;26.21;45.92;95644.19;5045123;28;20237;-81
2023/08/19 06:40:34;;;;;;;8.27;3.53;;;;;;;26.69;45.08;95650.78;5066522;28;20281;-81
2023/08/19 06:42:59;;;;;;;8.50;4.47;;;;;;;27.45;43.84;95648.22;5065856;28;20166;-81
2023/08/19 06:45:26;;;;;;;5.30;3.15;;;;;;;28.25;41.23;95648.44;5063491;28;20212;-81
2023/08/19 06:47:53;;;;;;;6.95;4.05;;;;;;;29.76;38.36;95658.25;5057946;28;20225;-81
2023/08/19 06:50:18;;;;;;;5.43;3.00;;;;;;;30.54;36.52;95666.03;5065413;28;20214;-81
2023/08/19 06:52:44;;;;;;;5.57;3.13;;;;;;;31.54;35.14;95674.09;5055414;28;20247;-81
2023/08/19 06:55:10;;;;;;;8.07;3.08;;;;;;;32.26;34.01;95673.63;5041269;28;20190;-81
2023/08/19 06:57:38;;;;;;;4.25;2.97;;;;;;;32.29;33.82;95676.53;5039238;28;20686;-81
2023/08/19 07:00:09;;;;;;;7.18;3.20;;;;;;;33.01;32.75;95679.38;5056207;28;20568;-81
2023/08/19 07:02:36;;;;;;;6.13;3.35;;;;;;;33.20;31.90;95679.41;5037335;28;20193;-81
2023/08/19 07:05:02;;;;;;;5.85;3.22;;;;;;;32.92;31.51;95678.41;5034560;28;20194;-81
2023/08/19 07:07:29;;;;;;;4.78;2.95;;;;;;;31.95;34.88;95679.22;5046687;28;20237;-81
2023/08/19 07:09:54;;;;;;;7.40;3.55;;;;;;;31.50;34.17;95685.63;5039254;28;20246;-82
2023/08/19 07:12:20;;;;;;;6.57;3.88;;;;;;;31.27;36.66;95692.44;5054462;28;20233;-80
2023/08/19 07:14:46;;;;;;;6.05;3.75;;;;;;;30.75;38.18;95692.84;5032938;28;20187;-81
2023/08/19 07:17:14;;;;;;;10.93;4.07;;;;;;;29.99;38.39;95694.44;5029979;28;20514;-81
2023/08/19 07:19:39;;;;;;;7.68;3.42;;;;;;;30.40;38.16;95699.84;5033127;28;20601;-83
2023/08/19 07:22:05;;;;;;;8.15;3.63;;;;;;;29.72;38.89;95704.56;5018576;28;20194;-82
2023/08/19 07:24:31;;;;;;;7.15;3.80;;;;;;;29.57;39.67;95706.13;5052406;28;20190;-81
2023/08/19 07:27:03;;;;;;;5.82;3.50;;;;;;;29.87;38.99;95707.28;5033765;28;20212;-81
2023/08/19 07:29:29;;;;;;;7.47;3.53;;;;;;;29.77;39.12;95704.56;5035826;28;20186;-82
2023/08/19 07:31:55;;;;;;;5.57;3.75;;;;;;;29.42;40.34;95707.91;5038309;28;20549;-81
2023/08/19 07:34:20;;;;;;;8.18;3.53;;;;;;;29.32;40.09;95708.66;5037636;28;20277;-81
2023/08/19 07:36:46;;;;;;;6.57;4.00;;;;;;;29.11;40.45;95704.31;5054866;28;20296;-80
2023/08/19 07:39:11;;;;;;;9.80;4.20;;;;;;;29.27;40.80;95711.34;5039376;28;20217;-81
2023/08/19 07:41:38;;;;;;;8.63;3.72;;;;;;;29.43;39.98;95707.66;5045785;28;20256;-81
2023/08/19 07:44:04;;;;;;;5.65;3.97;;;;;;;29.26;40.83;95709.75;5045734;28;20185;-80
2023/08/19 07:46:29;;;;;;;8.82;4.07;;;;;;;29.48;39.40;95718.38;5045086;28;20177;-82
2023/08/19 07:48:54;;;;;;;6.30;3.90;;;;;;;29.46;40.10;95719.69;5047312;28;20186;-82
2023/08/19 07:51:21;;;;;;;6.35;3.38;;;;;;;29.70;40.11;95717.41;5045523;28;20193;-81
2023/08/19 07:53:47;;;;;;;5.40;3.45;;;;;;;29.66;40.14;95718.97;5051965;28;20671;-81
2023/08/19 07:56:12;;;;;;;9.38;4.15;;;;;;;29.59;41.58;95720.03;5041286;28;20189;-81
2023/08/19 07:58:38;;;;;;;8.30;7.50;;;;;;;29.74;43.36;95723.81;5038521;28;20202;-80
2023/08/19 08:01:03;;;;;;;6.75;4.00;;;;;;;29.52;43.03;95724.03;5053901;28;20287;-81
2023/08/19 08:03:29;;;;;;;11.88;4.47;;;;;;;29.51;43.91;95727.78;5059286;28;20212;-82
2023/08/19 08:05:54;;;;;;;7.78;4.13;;;;;;;29.29;45.03;95718.03;5047961;28;20182;-81
2023/08/19 08:08:19;;;;;;;6.35;3.90;;;;;;;29.31;44.37;95715.91;5041369;28;20212;-81
2023/08/19 08:10:45;;;;;;;5.55;4.40;;;;;;;29.47;43.69;95730.13;5033512;28;20182;-81
2023/08/19 08:13:10;;;;;;;8.02;3.92;;;;;;;29.52;43.82;95729.41;5034589;28;20590;-81
2023/08/19 08:15:35;;;;;;;7.72;4.13;;;;;;;29.50;42.54;95721.59;5035097;28;20545;-82
2023/08/19 08:18:01;;;;;;;5.45;3.67;;;;;;;29.57;42.56;95727.53;5035876;28;20210;-81
2023/08/19 08:20:26;;;;;;;5.72;3.85;;;;;;;29.35;40.51;95718.88;5035183;28;20695;-81
2023/08/19 08:22:51;;;;;;;6.25;4.05;;;;;;;29.71;40.99;95727.03;5044154;28;20190;-81
2023/08/19 08:25:17;;;;;;;5.50;3.88;;;;;;;29.79;41.84;95726.53;5048277;28;20194;-81
2023/08/19 08:27:42;;;;;;;8.60;3.92;;;;;;;29.87;41.42;95736.72;5047323;28;20212;-81
2023/08/19 08:30:08;;;;;;;6.75;3.55;;;;;;;29.75;40.65;95726.22;5045641;28;20193;-83
2023/08/19 08:32:33;;;;;;;8.88;4.30;;;;;;;29.82;40.89;95734.03;5043788;28;20244;-82
2023/08/19 08:35:01;;;;;;;6.22;3.90;;;;;;;29.76;41.29;95727.03;5057832;28;20185;-81
2023/08/19 08:37:27;;;;;;;4.30;3.42;;;;;;;30.01;41.70;95737.81;5059538;28;20206;-82
2023/08/19 08:39:52;;;;;;;5.90;3.97;;;;;;;29.63;39.31;95725.69;5056314;28;20746;-82
2023/08/19 08:42:17;;;;;;;8.00;3.97;;;;;;;29.72;41.59;95734.00;5053734;28;20186;-81
2023/08/19 08:44:49;;;;;;;7.53;3.80;;;;;;;30.10;40.54;95732.75;5050723;28;20200;-81
2023/08/19 08:47:15;;;;;;;10.48;4.47;;;;;;;29.98;39.26;95735.66;5059227;28;20202;-81
2023/08/19 08:49:43;;;;;;;7.03;3.60;;;;;;;29.80;38.52;95736.97;5044088;28;20257;-83
2023/08/19 08:52:08;;;;;;;11.65;4.05;;;;;;;29.84;40.17;95740.72;5044139;28;20560;-82
2023/08/19 08:54:34;;;;;;;5.45;3.58;;;;;;;30.06;40.52;95743.19;5060620;28;20182;-83
2023/08/19 08:57:01;;;;;;;7.18;3.88;;;;;;;30.20;40.07;95730.09;5056976;28;20646;-81
2023/08/19 08:59:27;;;;;;;7.07;3.88;;;;;;;30.43;38.99;95739.47;5034106;28;20182;-81
2023/08/19 09:01:53;;;;;;;6.97;3.55;;;;;;;30.08;39.60;95737.59;5044844;28;20189;-81
2023/08/19 09:04:20;;;;;;;7.50;3.88;;;;;;;30.01;41.00;95745.84;5046264;28;20556;-82
2023/08/19 09:06:46;;;;;;;10.38;4.93;;;;;;;30.15;41.14;95754.19;5044919;28;20222;-81
2023/08/19 09:09:12;;;;;;;8.48;4.38;;;;;;;29.98;41.96;95751.72;5059863;28;20190;-80
2023/08/19 09:11:40;;;;;;;5.07;4.15;;;;;;;29.77;42.68;95755.41;5043156;28;20182;-80
2023/08/19 09:14:10;;;;;;;6.90;4.13;;;;;;;30.05;42.19;95756.84;5042006;28;20208;-80
2023/08/19 09:16:36;;;;;;;8.05;4.22;;;;;;;30.15;42.07;95748.84;5053277;28;20196;-80
2023/08/19 09:19:01;;;;;;;7.75;4.00;;;;;;;30.10;42.67;95748.81;5036570;28;20190;-81
2023/08/19 09:21:26;;;;;;;9.68;4.13;;;;;;;30.10;40.97;95749.63;5049337;28;20233;-81
2023/08/19 09:23:52;;;;;;;9.90;4.22;;;;;;;30.49;40.86;95754.50;5040435;28;20190;-81
2023/08/19 09:26:17;;;;;;;6.78;4.30;;;;;;;30.24;40.61;95751.81;5044232;28;20600;-81
2023/08/19 09:28:42;;;;;;;8.80;4.50;;;;;;;30.31;41.53;95749.66;5043229;28;20246;-81
2023/08/19 09:31:29;;;;;;;9.20;4.47;;;;;;;30.24;41.74;95752.59;5052060;28;20197;-81
2023/08/19 09:33:54;;;;;;;4.75;4.07;;;;;;;30.53;42.09;95754.75;5039353;28;20193;-82
2023/08/19 09:36:23;;;;;;;9.73;4.10;;;;;;;30.30;39.83;95756.88;5061563;28;20245;-81
2023/08/19 09:38:53;;;;;;;6.30;3.97;;;;;;;30.84;40.78;95752.88;5030405;28;20205;-82
2023/08/19 09:41:18;;;;;;;8.80;4.10;;;;;;;30.62;40.97;95756.63;5034431;28;20302;-81
2023/08/19 09:43:47;;;;;;;7.72;4.15;;;;;;;31.05;38.65;95757.13;5039584;28;20671;-81
2023/08/19 09:46:14;;;;;;;8.27;4.05;;;;;;;31.08;37.85;95755.78;5032446;28;20185;-81
2023/08/19 09:48:39;;;;;;;5.80;3.72;;;;;;;31.46;37.20;95754.38;5037407;28;20217;-81
2023/08/19 09:51:08;;;;;;;6.05;3.85;;;;;;;31.72;35.75;95761.22;5036382;28;20182;-81
2023/08/19 09:53:36;;;;;;;5.32;3.50;;;;;;;31.78;36.45;95762.00;5021724;28;20229;-82
2023/08/19 09:56:01;;;;;;;7.82;3.78;;;;;;;32.06;36.04;95761.31;5042658;28;20260;-81
2023/08/19 09:58:27;;;;;;;8.15;3.45;;;;;;;32.10;33.44;95756.19;5036636;28;20206;-81
2023/08/19 10:00:52;;;;;;;7.88;3.95;;;;;;;32.06;35.24;95753.25;5047301;28;20686;-81
2023/08/19 10:03:18;;;;;;;7.70;3.95;;;;;;;31.77;34.62;95753.16;5046394;28;20182;-81
2023/08/19 10:05:48;;;;;;;5.18;3.50;;;;;;;32.01;33.07;95757.88;5054482;28;20189;-82
2023/08/19 10:08:19;;;;;;;7.20;3.80;;;;;;;32.51;33.10;95747.84;5029569;28;20702;-81
2023/08/19 10:10:45;;;;;;;7.57;3.92;;;;;;;32.53;33.25;95751.09;5055598;28;20663;-81
2023/08/19 10:13:12;;;;;;;6.80;4.13;;;;;;;32.22;33.41;95766.59;5051756;28;20193;-81
2023/08/19 10:15:41;;;;;;;5.78;3.72;;;;;;;32.33;33.31;95762.78;5026804;28;20189;-81
2023/08/19 10:18:13;;;;;;;4.28;3.88;;;;;;;32.53;33.12;95764.53;5045183;28;20588;-81
2023/08/19 10:20:40;;;;;;;8.27;3.90;;;;;;;32.68;32.32;95767.88;5047303;28;20203;-79
2023/08/19 10:23:07;;;;;;;4.88;3.90;;;;;;;32.95;33.17;95769.25;5050687;28;20228;-80
2023/08/19 10:25:32;;;;;;;7.00;3.50;;;;;;;33.06;31.30;95770.00;5057200;28;20228;-80
2023/08/19 10:28:11;;;;;;;11.15;4.35;;;;;;;32.78;33.24;95768.84;5047246;28;20205;-82
2023/08/19 10:30:37;;;;;;;6.22;4.07;;;;;;;32.46;32.57;95772.09;5045998;28;20217;-80
2023/08/19 10:33:29;;;;;;;4.43;4.03;;;;;;;32.45;32.94;95778.56;5061360;28;20204;-80
2023/08/19 10:35:58;;;;;;;6.18;3.90;;;;;;;32.92;32.46;95765.25;5033756;28;20192;-79
2023/08/19 10:38:24;;;;;;;8.30;4.07;;;;;;;32.86;32.72;95774.47;5046726;28;20210;-80
2023/08/19 10:41:02;;;;;;;5.93;3.75;;;;;;;33.45;31.21;95767.97;5053991;28;20211;-81
2023/08/19 10:43:30;;;;;;;6.07;4.10;;;;;;;33.12;32.94;95771.53;5024701;28;20194;-81
2023/08/19 10:45:58;;;;;;;7.43;4.10;;;;;;;33.24;31.67;95770.06;5035391;28;20193;-80
2023/08/19 10:48:33;;;;;;;6.03;3.90;;;;;;;32.61;32.35;95780.06;5039663;28;20209;-81
2023/08/19 10:50:58;;;;;;;9.27;4.15;;;;;;;32.74;32.25;95782.06;5052179;28;20240;-81
2023/08/19 10:53:24;;;;;;;4.97;3.60;;;;;;;33.38;32.34;95783.66;5037161;28;20198;-81
2023/08/19 10:55:50;;;;;;;7.95;5.28;;;;;;;33.68;31.03;95792.47;5045634;28;20186;-82
2023/08/19 10:58:16;;;;;;;4.90;3.70;;;;;;;33.26;32.36;95780.53;5026399;28;20213;-82
2023/08/19 11:00:42;;;;;;;9.73;4.50;;;;;;;33.47;31.76;95778.44;5045900;28;20280;-82
2023/08/19 11:03:07;;;;;;;6.35;3.42;;;;;;;33.14;32.42;95786.31;5056298;28;20260;-80
2023/08/19 11:05:33;;;;;;;7.93;4.55;;;;;;;32.96;32.63;95782.47;5050424;28;20177;-81
2023/08/19 11:07:58;;;;;;;6.50;4.32;;;;;;;33.11;32.46;95783.38;5036834;28;20201;-81
2023/08/19 11:10:24;;;;;;;5.28;3.60;;;;;;;32.89;33.34;95779.28;5052674;28;20178;-81
2023/08/19 11:12:49;;;;;;;5.75;3.65;;;;;;;32.78;33.19;95780.44;5033080;28;20754;-81
2023/08/19 11:15:25;;;;;;;9.35;4.95;;;;;;;32.78;31.58;95772.38;5043968;28;20734;-81
2023/08/19 11:17:50;;;;;;;6.43;4.00;;;;;;;33.46;30.80;95780.31;5034923;28;20213;-81
2023/08/19 11:20:15;;;;;;;6.85;4.70;;;;;;;33.81;31.44;95779.09;5036139;28;20566;-81
2023/08/19 11:22:46;;;;;;;6.50;4.35;;;;;;;33.90;31.50;95781.97;5046779;28;20198;-81
2023/08/19 11:25:12;;;;;;;5.35;3.90;;;;;;;34.01;30.79;95783.44;5041126;28;20182;-80
2023/08/19 11:27:37;;;;;;;5.30;4.20;;;;;;;33.74;31.12;95784.03;5038179;28;20228;-80
2023/08/19 11:30:03;;;;;;;8.63;4.28;;;;;;;33.81;30.64;95783.69;5040022;28;20186;-80